sensor_id;sensor_type;location;lat;lon;timestamp;pressure;altitude;pressure_sealevel;temperature;humidity
47738;BME280;33502;47.182;27.506;2022-07-11T00:02:04;99823.13;;;15.02;100.00
47738;BME280;33502;47.182;27.506;2022-07-11T00:04:31;99820.78;;;14.98;100.00
47738;BME280;33502;47.182;27.506;2022-07-11T00:06:58;99816.72;;;14.92;100.00
47738;BME280;33502;47.182;27.506;2022-07-11T00:09:24;99825.03;;;14.87;100.00
47738;BME280;33502;47.182;27.506;2022-07-11T00:11:50;99828.13;;;14.81;100.00
47738;BME280;33502;47.182;27.506;2022-07-11T00:14:17;99818.66;;;14.77;100.00
47738;BME280;33502;47.182;27.506;2022-07-11T00:16:43;99816.06;;;14.76;100.00
47738;BME280;33502;47.182;27.506;2022-07-11T00:19:09;99810.66;;;14.77;100.00
47738;BME280;33502;47.182;27.506;2022-07-11T00:21:35;99808.84;;;14.78;100.00
47738;BME280;33502;47.182;27.506;2022-07-11T00:24:05;99814.81;;;14.81;100.00
47738;BME280;33502;47.182;27.506;2022-07-11T00:26:34;99808.41;;;14.84;100.00
47738;BME280;33502;47.182;27.506;2022-07-11T00:29:00;99810.78;;;14.88;100.00
47738;BME280;33502;47.182;27.506;2022-07-11T00:31:26;99808.72;;;14.92;100.00
47738;BME280;33502;47.182;27.506;2022-07-11T00:33:53;99815.44;;;14.98;100.00
47738;BME280;33502;47.182;27.506;2022-07-11T00:36:19;99817.06;;;15.00;100.00
47738;BME280;33502;47.182;27.506;2022-07-11T00:38:46;99814.91;;;15.05;100.00
47738;BME280;33502;47.182;27.506;2022-07-11T00:41:11;99815.56;;;15.09;100.00
47738;BME280;33502;47.182;27.506;2022-07-11T00:43:39;99819.84;;;15.12;100.00
47738;BME280;33502;47.182;27.506;2022-07-11T00:46:06;99815.44;;;15.11;100.00
47738;BME280;33502;47.182;27.506;2022-07-11T00:48:33;99816.09;;;15.14;100.00
47738;BME280;33502;47.182;27.506;2022-07-11T00:50:59;99812.59;;;15.14;100.00
47738;BME280;33502;47.182;27.506;2022-07-11T00:53:27;99824.09;;;15.14;100.00
47738;BME280;33502;47.182;27.506;2022-07-11T00:55:53;99816.09;;;15.14;100.00
47738;BME280;33502;47.182;27.506;2022-07-11T00:58:20;99820.34;;;15.17;100.00
47738;BME280;33502;47.182;27.506;2022-07-11T01:00:46;99822.28;;;15.15;100.00
47738;BME280;33502;47.182;27.506;2022-07-11T01:03:12;99826.75;;;15.14;100.00
47738;BME280;33502;47.182;27.506;2022-07-11T01:05:37;99808.94;;;15.15;100.00
47738;BME280;33502;47.182;27.506;2022-07-11T01:08:04;99808.84;;;15.16;100.00
47738;BME280;33502;47.182;27.506;2022-07-11T01:10:31;99821.22;;;15.17;100.00
47738;BME280;33502;47.182;27.506;2022-07-11T01:12:57;99814.91;;;15.18;100.00
47738;BME280;33502;47.182;27.506;2022-07-11T01:15:23;99815.91;;;15.17;100.00
47738;BME280;33502;47.182;27.506;2022-07-11T01:17:50;99814.06;;;15.18;100.00
47738;BME280;33502;47.182;27.506;2022-07-11T01:20:20;99823.16;;;15.15;100.00
47738;BME280;33502;47.182;27.506;2022-07-11T01:22:47;99809.91;;;15.14;100.00
47738;BME280;33502;47.182;27.506;2022-07-11T01:25:19;99809.19;;;15.12;100.00
47738;BME280;33502;47.182;27.506;2022-07-11T01:28:02;99802.22;;;15.09;100.00
47738;BME280;33502;47.182;27.506;2022-07-11T01:30:30;99807.88;;;15.04;100.00
47738;BME280;33502;47.182;27.506;2022-07-11T01:32:57;99812.56;;;15.01;100.00
47738;BME280;33502;47.182;27.506;2022-07-11T01:35:23;99807.34;;;14.99;100.00
47738;BME280;33502;47.182;27.506;2022-07-11T01:37:50;99811.84;;;14.99;100.00
47738;BME280;33502;47.182;27.506;2022-07-11T01:40:16;99815.56;;;14.96;100.00
47738;BME280;33502;47.182;27.506;2022-07-11T01:42:42;99819.38;;;14.92;100.00
47738;BME280;33502;47.182;27.506;2022-07-11T01:45:09;99815.13;;;14.90;100.00
47738;BME280;33502;47.182;27.506;2022-07-11T01:47:36;99808.41;;;14.84;100.00
47738;BME280;33502;47.182;27.506;2022-07-11T01:50:03;99814.06;;;14.79;100.00
47738;BME280;33502;47.182;27.506;2022-07-11T01:52:29;99822.25;;;14.76;100.00
47738;BME280;33502;47.182;27.506;2022-07-11T01:54:55;99817.25;;;14.72;100.00
47738;BME280;33502;47.182;27.506;2022-07-11T01:57:21;99822.03;;;14.66;100.00
47738;BME280;33502;47.182;27.506;2022-07-11T01:59:46;99828.53;;;14.62;100.00
47738;BME280;33502;47.182;27.506;2022-07-11T02:02:13;99819.13;;;14.57;100.00
47738;BME280;33502;47.182;27.506;2022-07-11T02:04:40;99822.09;;;14.52;100.00
47738;BME280;33502;47.182;27.506;2022-07-11T02:07:06;99828.16;;;14.54;100.00
47738;BME280;33502;47.182;27.506;2022-07-11T02:09:32;99834.44;;;14.53;100.00
47738;BME280;33502;47.182;27.506;2022-07-11T02:11:58;99838.81;;;14.54;100.00
47738;BME280;33502;47.182;27.506;2022-07-11T02:14:24;99827.41;;;14.52;100.00
47738;BME280;33502;47.182;27.506;2022-07-11T02:16:50;99832.94;;;14.49;100.00
47738;BME280;33502;47.182;27.506;2022-07-11T02:19:16;99833.13;;;14.46;100.00
47738;BME280;33502;47.182;27.506;2022-07-11T02:21:42;99833.22;;;14.44;100.00
47738;BME280;33502;47.182;27.506;2022-07-11T02:24:07;99828.13;;;14.41;100.00
47738;BME280;33502;47.182;27.506;2022-07-11T02:26:34;99839.72;;;14.40;100.00
47738;BME280;33502;47.182;27.506;2022-07-11T02:29:00;99841.53;;;14.40;100.00
47738;BME280;33502;47.182;27.506;2022-07-11T02:31:26;99842.59;;;14.37;100.00
47738;BME280;33502;47.182;27.506;2022-07-11T02:33:52;99842.69;;;14.36;100.00
47738;BME280;33502;47.182;27.506;2022-07-11T02:36:18;99839.38;;;14.32;100.00
47738;BME280;33502;47.182;27.506;2022-07-11T02:38:44;99842.03;;;14.32;100.00
47738;BME280;33502;47.182;27.506;2022-07-11T02:41:09;99844.72;;;14.32;100.00
47738;BME280;33502;47.182;27.506;2022-07-11T02:43:35;99835.00;;;14.31;100.00
47738;BME280;33502;47.182;27.506;2022-07-11T02:46:01;99841.94;;;14.34;100.00
47738;BME280;33502;47.182;27.506;2022-07-11T02:48:27;99838.31;;;14.35;100.00
47738;BME280;33502;47.182;27.506;2022-07-11T02:50:53;99844.53;;;14.35;100.00
47738;BME280;33502;47.182;27.506;2022-07-11T02:53:19;99836.53;;;14.35;100.00
47738;BME280;33502;47.182;27.506;2022-07-11T02:55:45;99833.00;;;14.35;100.00
47738;BME280;33502;47.182;27.506;2022-07-11T02:58:11;99833.13;;;14.33;100.00
47738;BME280;33502;47.182;27.506;2022-07-11T03:00:37;99844.63;;;14.34;100.00
47738;BME280;33502;47.182;27.506;2022-07-11T03:03:03;99849.84;;;14.35;100.00
47738;BME280;33502;47.182;27.506;2022-07-11T03:05:29;99848.88;;;14.36;100.00
47738;BME280;33502;47.182;27.506;2022-07-11T03:07:55;99846.88;;;14.40;100.00
47738;BME280;33502;47.182;27.506;2022-07-11T03:10:20;99846.69;;;14.43;100.00
47738;BME280;33502;47.182;27.506;2022-07-11T03:12:50;99850.09;;;14.45;100.00
47738;BME280;33502;47.182;27.506;2022-07-11T03:15:16;99853.50;;;14.47;100.00
47738;BME280;33502;47.182;27.506;2022-07-11T03:17:42;99851.78;;;14.46;100.00
47738;BME280;33502;47.182;27.506;2022-07-11T03:20:08;99854.34;;;14.47;100.00
47738;BME280;33502;47.182;27.506;2022-07-11T03:22:35;99843.78;;;14.46;100.00
47738;BME280;33502;47.182;27.506;2022-07-11T03:25:02;99848.38;;;14.44;100.00
47738;BME280;33502;47.182;27.506;2022-07-11T03:27:32;99853.59;;;14.45;100.00
47738;BME280;33502;47.182;27.506;2022-07-11T03:29:58;99863.75;;;14.53;100.00
47738;BME280;33502;47.182;27.506;2022-07-11T03:32:24;99854.69;;;14.56;100.00
47738;BME280;33502;47.182;27.506;2022-07-11T03:34:50;99843.03;;;14.58;100.00
47738;BME280;33502;47.182;27.506;2022-07-11T03:37:34;99858.50;;;14.66;100.00
47738;BME280;33502;47.182;27.506;2022-07-11T03:40:00;99852.63;;;14.74;100.00
47738;BME280;33502;47.182;27.506;2022-07-11T03:42:26;99858.94;;;14.85;100.00
47738;BME280;33502;47.182;27.506;2022-07-11T03:44:52;99850.53;;;14.92;100.00
47738;BME280;33502;47.182;27.506;2022-07-11T03:47:18;99851.72;;;15.00;100.00
47738;BME280;33502;47.182;27.506;2022-07-11T03:49:46;99855.69;;;15.07;100.00
47738;BME280;33502;47.182;27.506;2022-07-11T03:52:12;99840.00;;;15.16;100.00
47738;BME280;33502;47.182;27.506;2022-07-11T03:54:38;99858.88;;;15.25;100.00
47738;BME280;33502;47.182;27.506;2022-07-11T03:57:04;99860.03;;;15.34;100.00
47738;BME280;33502;47.182;27.506;2022-07-11T03:59:30;99852.25;;;15.44;100.00
47738;BME280;33502;47.182;27.506;2022-07-11T04:01:55;99838.25;;;15.53;100.00
47738;BME280;33502;47.182;27.506;2022-07-11T04:04:21;99853.50;;;15.64;100.00
47738;BME280;33502;47.182;27.506;2022-07-11T04:06:47;99847.44;;;15.75;100.00
47738;BME280;33502;47.182;27.506;2022-07-11T04:09:13;99851.03;;;15.87;100.00
47738;BME280;33502;47.182;27.506;2022-07-11T04:11:38;99856.72;;;16.06;100.00
47738;BME280;33502;47.182;27.506;2022-07-11T04:14:05;99863.97;;;16.17;100.00
47738;BME280;33502;47.182;27.506;2022-07-11T04:16:30;99859.19;;;16.33;100.00
47738;BME280;33502;47.182;27.506;2022-07-11T04:18:56;99866.41;;;16.44;100.00
47738;BME280;33502;47.182;27.506;2022-07-11T04:21:22;99876.06;;;16.58;99.63
47738;BME280;33502;47.182;27.506;2022-07-11T04:23:48;99869.06;;;16.68;98.76
47738;BME280;33502;47.182;27.506;2022-07-11T04:26:13;99861.72;;;16.83;98.00
47738;BME280;33502;47.182;27.506;2022-07-11T04:28:40;99880.88;;;17.01;96.99
47738;BME280;33502;47.182;27.506;2022-07-11T04:31:06;99861.31;;;17.12;95.01
47738;BME280;33502;47.182;27.506;2022-07-11T04:33:32;99866.44;;;17.26;94.44
47738;BME280;33502;47.182;27.506;2022-07-11T04:35:58;99870.59;;;17.41;92.32
47738;BME280;33502;47.182;27.506;2022-07-11T04:38:23;99881.06;;;17.67;90.78
47738;BME280;33502;47.182;27.506;2022-07-11T04:40:49;99877.19;;;17.94;89.03
47738;BME280;33502;47.182;27.506;2022-07-11T04:43:16;99874.66;;;18.36;86.14
47738;BME280;33502;47.182;27.506;2022-07-11T04:45:42;99882.09;;;18.65;83.36
47738;BME280;33502;47.182;27.506;2022-07-11T04:48:08;99884.72;;;18.87;82.47
47738;BME280;33502;47.182;27.506;2022-07-11T04:50:34;99888.34;;;19.19;80.90
47738;BME280;33502;47.182;27.506;2022-07-11T04:53:00;99896.69;;;19.46;78.81
47738;BME280;33502;47.182;27.506;2022-07-11T04:55:26;99896.72;;;19.25;79.34
47738;BME280;33502;47.182;27.506;2022-07-11T04:57:52;99889.84;;;18.90;79.83
47738;BME280;33502;47.182;27.506;2022-07-11T05:00:18;99902.72;;;18.64;81.14
47738;BME280;33502;47.182;27.506;2022-07-11T05:02:44;99900.38;;;18.38;82.30
47738;BME280;33502;47.182;27.506;2022-07-11T05:05:11;99908.56;;;18.26;83.47
47738;BME280;33502;47.182;27.506;2022-07-11T05:07:36;99907.84;;;18.24;83.44
47738;BME280;33502;47.182;27.506;2022-07-11T05:10:03;99916.34;;;18.29;82.60
47738;BME280;33502;47.182;27.506;2022-07-11T05:12:29;99913.66;;;18.40;81.92
47738;BME280;33502;47.182;27.506;2022-07-11T05:14:55;99920.16;;;19.02;79.40
47738;BME280;33502;47.182;27.506;2022-07-11T05:17:25;99914.69;;;20.67;71.70
47738;BME280;33502;47.182;27.506;2022-07-11T05:19:51;99920.56;;;21.39;66.57
47738;BME280;33502;47.182;27.506;2022-07-11T05:22:17;99922.97;;;22.45;62.12
47738;BME280;33502;47.182;27.506;2022-07-11T05:24:42;99925.88;;;23.15;59.28
47738;BME280;33502;47.182;27.506;2022-07-11T05:27:08;99919.53;;;23.24;58.55
47738;BME280;33502;47.182;27.506;2022-07-11T05:29:34;99919.53;;;23.24;57.87
47738;BME280;33502;47.182;27.506;2022-07-11T05:32:00;99922.41;;;22.69;58.73
47738;BME280;33502;47.182;27.506;2022-07-11T05:34:26;99920.41;;;21.98;61.47
47738;BME280;33502;47.182;27.506;2022-07-11T05:36:51;99924.06;;;22.34;61.17
47738;BME280;33502;47.182;27.506;2022-07-11T05:39:18;99918.59;;;21.88;61.75
47738;BME280;33502;47.182;27.506;2022-07-11T05:41:43;99924.16;;;22.42;60.13
47738;BME280;33502;47.182;27.506;2022-07-11T05:44:09;99925.78;;;23.25;57.71
47738;BME280;33502;47.182;27.506;2022-07-11T05:46:36;99910.91;;;24.58;54.19
47738;BME280;33502;47.182;27.506;2022-07-11T05:49:06;99912.13;;;25.54;52.53
47738;BME280;33502;47.182;27.506;2022-07-11T05:51:32;99926.03;;;26.47;48.77
47738;BME280;33502;47.182;27.506;2022-07-11T05:53:58;99913.47;;;25.58;49.40
47738;BME280;33502;47.182;27.506;2022-07-11T05:56:24;99922.13;;;24.96;50.86
47738;BME280;33502;47.182;27.506;2022-07-11T05:58:51;99923.44;;;24.59;51.53
47738;BME280;33502;47.182;27.506;2022-07-11T06:01:17;99925.00;;;24.78;51.43
47738;BME280;33502;47.182;27.506;2022-07-11T06:03:43;99922.13;;;25.46;49.28
47738;BME280;33502;47.182;27.506;2022-07-11T06:06:09;99925.50;;;25.56;48.99
47738;BME280;33502;47.182;27.506;2022-07-11T06:08:36;99935.69;;;25.21;49.46
47738;BME280;33502;47.182;27.506;2022-07-11T06:11:13;99929.94;;;25.40;49.12
47738;BME280;33502;47.182;27.506;2022-07-11T06:13:40;99930.78;;;25.00;49.14
47738;BME280;33502;47.182;27.506;2022-07-11T06:16:07;99929.75;;;25.01;49.27
47738;BME280;33502;47.182;27.506;2022-07-11T06:18:35;99940.56;;;23.65;51.93
47738;BME280;33502;47.182;27.506;2022-07-11T06:21:01;99942.66;;;23.45;52.87
47738;BME280;33502;47.182;27.506;2022-07-11T06:23:28;99939.03;;;24.82;49.99
47738;BME280;33502;47.182;27.506;2022-07-11T06:25:55;99934.53;;;25.32;48.62
47738;BME280;33502;47.182;27.506;2022-07-11T06:28:21;99934.81;;;25.04;48.44
47738;BME280;33502;47.182;27.506;2022-07-11T06:30:48;99941.88;;;24.64;49.44
47738;BME280;33502;47.182;27.506;2022-07-11T06:33:20;99944.81;;;25.20;48.12
47738;BME280;33502;47.182;27.506;2022-07-11T06:35:47;99939.19;;;26.27;45.82
47738;BME280;33502;47.182;27.506;2022-07-11T06:38:14;99944.31;;;25.08;47.70
47738;BME280;33502;47.182;27.506;2022-07-11T06:40:41;99947.44;;;24.54;48.93
47738;BME280;33502;47.182;27.506;2022-07-11T06:43:09;99954.81;;;25.19;47.67
47738;BME280;33502;47.182;27.506;2022-07-11T06:45:35;99952.38;;;24.24;49.73
47738;BME280;33502;47.182;27.506;2022-07-11T06:48:01;99942.22;;;24.61;48.90
47738;BME280;33502;47.182;27.506;2022-07-11T06:50:27;99944.81;;;22.52;53.10
47738;BME280;33502;47.182;27.506;2022-07-11T06:52:53;99957.91;;;22.46;54.56
47738;BME280;33502;47.182;27.506;2022-07-11T06:55:19;99954.28;;;24.32;49.45
47738;BME280;33502;47.182;27.506;2022-07-11T06:57:45;99952.09;;;25.52;45.99
47738;BME280;33502;47.182;27.506;2022-07-11T07:00:11;99953.69;;;26.82;43.83
47738;BME280;33502;47.182;27.506;2022-07-11T07:02:37;99951.66;;;27.45;42.27
47738;BME280;33502;47.182;27.506;2022-07-11T07:05:05;99958.00;;;28.35;40.02
47738;BME280;33502;47.182;27.506;2022-07-11T07:07:31;99945.56;;;29.20;38.37
47738;BME280;33502;47.182;27.506;2022-07-11T07:09:57;99950.41;;;29.03;38.56
47738;BME280;33502;47.182;27.506;2022-07-11T07:12:23;99938.31;;;27.88;39.33
47738;BME280;33502;47.182;27.506;2022-07-11T07:14:49;99941.28;;;26.16;42.00
47738;BME280;33502;47.182;27.506;2022-07-11T07:17:15;99946.69;;;25.19;43.91
47738;BME280;33502;47.182;27.506;2022-07-11T07:19:42;99943.66;;;25.47;44.27
47738;BME280;33502;47.182;27.506;2022-07-11T07:22:08;99944.66;;;25.13;44.24
47738;BME280;33502;47.182;27.506;2022-07-11T07:24:35;99954.75;;;25.93;44.17
47738;BME280;33502;47.182;27.506;2022-07-11T07:27:05;99946.84;;;26.86;42.59
47738;BME280;33502;47.182;27.506;2022-07-11T07:29:31;99941.78;;;27.06;41.25
47738;BME280;33502;47.182;27.506;2022-07-11T07:31:58;99946.00;;;27.84;40.36
47738;BME280;33502;47.182;27.506;2022-07-11T07:34:25;99941.94;;;28.40;38.97
47738;BME280;33502;47.182;27.506;2022-07-11T07:36:51;99934.16;;;28.52;38.59
47738;BME280;33502;47.182;27.506;2022-07-11T07:39:17;99936.91;;;29.44;37.72
47738;BME280;33502;47.182;27.506;2022-07-11T07:41:44;99942.16;;;29.39;37.57
47738;BME280;33502;47.182;27.506;2022-07-11T07:44:10;99939.84;;;27.90;39.17
47738;BME280;33502;47.182;27.506;2022-07-11T07:46:36;99934.91;;;26.72;40.96
47738;BME280;33502;47.182;27.506;2022-07-11T07:49:02;99938.22;;;25.39;42.71
47738;BME280;33502;47.182;27.506;2022-07-11T07:51:29;99949.44;;;24.44;45.27
47738;BME280;33502;47.182;27.506;2022-07-11T07:53:55;99943.06;;;24.19;45.50
47738;BME280;33502;47.182;27.506;2022-07-11T07:56:20;99942.38;;;23.82;46.48
47738;BME280;33502;47.182;27.506;2022-07-11T07:58:46;99945.50;;;23.70;47.93
47738;BME280;33502;47.182;27.506;2022-07-11T08:01:13;99930.09;;;23.62;48.12
47738;BME280;33502;47.182;27.506;2022-07-11T08:03:57;99946.69;;;23.41;49.10
47738;BME280;33502;47.182;27.506;2022-07-11T08:06:23;99948.41;;;23.24;49.19
47738;BME280;33502;47.182;27.506;2022-07-11T08:08:49;99944.97;;;23.40;49.03
47738;BME280;33502;47.182;27.506;2022-07-11T08:11:15;99934.09;;;24.61;46.74
47738;BME280;33502;47.182;27.506;2022-07-11T08:13:42;99947.63;;;24.53;46.34
47738;BME280;33502;47.182;27.506;2022-07-11T08:16:08;99934.84;;;25.20;45.42
47738;BME280;33502;47.182;27.506;2022-07-11T08:18:34;99936.38;;;26.12;43.56
47738;BME280;33502;47.182;27.506;2022-07-11T08:21:01;99928.38;;;27.04;42.07
47738;BME280;33502;47.182;27.506;2022-07-11T08:23:27;99946.72;;;27.78;41.05
47738;BME280;33502;47.182;27.506;2022-07-11T08:25:53;99940.00;;;26.98;41.20
47738;BME280;33502;47.182;27.506;2022-07-11T08:28:19;99938.47;;;27.57;40.40
47738;BME280;33502;47.182;27.506;2022-07-11T08:30:45;99948.38;;;27.11;40.79
47738;BME280;33502;47.182;27.506;2022-07-11T08:33:12;99940.03;;;26.59;41.85
47738;BME280;33502;47.182;27.506;2022-07-11T08:35:39;99951.41;;;25.17;44.03
47738;BME280;33502;47.182;27.506;2022-07-11T08:38:05;99942.31;;;25.35;43.93
47738;BME280;33502;47.182;27.506;2022-07-11T08:40:31;99937.34;;;26.59;41.59
47738;BME280;33502;47.182;27.506;2022-07-11T08:42:57;99962.72;;;27.43;40.00
47738;BME280;33502;47.182;27.506;2022-07-11T08:45:29;99954.25;;;28.36;38.32
47738;BME280;33502;47.182;27.506;2022-07-11T08:47:57;99948.03;;;28.42;37.27
47738;BME280;33502;47.182;27.506;2022-07-11T08:53:46;99944.88;;;29.39;35.63
47738;BME280;33502;47.182;27.506;2022-07-11T08:56:12;99944.00;;;29.95;35.67
47738;BME280;33502;47.182;27.506;2022-07-11T08:58:44;99943.59;;;29.35;35.73
47738;BME280;33502;47.182;27.506;2022-07-11T09:01:14;99952.53;;;26.99;39.23
47738;BME280;33502;47.182;27.506;2022-07-11T09:03:41;99945.84;;;25.35;41.65
47738;BME280;33502;47.182;27.506;2022-07-11T09:06:07;99949.72;;;25.00;42.25
47738;BME280;33502;47.182;27.506;2022-07-11T09:08:33;99947.34;;;25.54;41.92
47738;BME280;33502;47.182;27.506;2022-07-11T09:11:00;99944.50;;;27.29;38.44
47738;BME280;33502;47.182;27.506;2022-07-11T09:13:29;99939.28;;;28.83;36.52
47738;BME280;33502;47.182;27.506;2022-07-11T09:16:04;99941.91;;;28.91;36.16
47738;BME280;33502;47.182;27.506;2022-07-11T09:18:36;99946.50;;;27.35;38.23
47738;BME280;33502;47.182;27.506;2022-07-11T09:21:09;99929.59;;;26.47;38.49
47738;BME280;33502;47.182;27.506;2022-07-11T09:23:56;99935.78;;;27.86;37.48
47738;BME280;33502;47.182;27.506;2022-07-11T09:26:42;99932.91;;;29.40;35.16
47738;BME280;33502;47.182;27.506;2022-07-11T09:29:13;99944.69;;;27.27;37.45
47738;BME280;33502;47.182;27.506;2022-07-11T09:31:40;99927.50;;;26.26;39.62
47738;BME280;33502;47.182;27.506;2022-07-11T09:34:15;99936.88;;;25.02;40.82
47738;BME280;33502;47.182;27.506;2022-07-11T09:36:45;99934.19;;;26.38;40.00
47738;BME280;33502;47.182;27.506;2022-07-11T09:41:39;99937.50;;;24.20;42.43
47738;BME280;33502;47.182;27.506;2022-07-11T09:44:26;99925.75;;;24.03;43.15
47738;BME280;33502;47.182;27.506;2022-07-11T09:46:55;99935.03;;;25.27;43.14
47738;BME280;33502;47.182;27.506;2022-07-11T09:49:35;99915.88;;;26.09;39.43
47738;BME280;33502;47.182;27.506;2022-07-11T09:54:56;99934.31;;;27.23;36.70
47738;BME280;33502;47.182;27.506;2022-07-11T10:00:23;99946.25;;;27.60;36.91
47738;BME280;33502;47.182;27.506;2022-07-11T10:02:51;99937.03;;;27.23;36.13
47738;BME280;33502;47.182;27.506;2022-07-11T10:05:17;99935.91;;;27.40;36.41
47738;BME280;33502;47.182;27.506;2022-07-11T10:07:43;99939.31;;;27.72;36.13
47738;BME280;33502;47.182;27.506;2022-07-11T10:10:10;99931.72;;;27.67;35.04
47738;BME280;33502;47.182;27.506;2022-07-11T10:12:36;99942.53;;;25.81;37.22
47738;BME280;33502;47.182;27.506;2022-07-11T10:15:05;99929.66;;;26.39;37.23
47738;BME280;33502;47.182;27.506;2022-07-11T10:20:15;99904.94;;;27.03;35.97
47738;BME280;33502;47.182;27.506;2022-07-11T10:28:38;99918.78;;;27.84;34.06
47738;BME280;33502;47.182;27.506;2022-07-11T10:31:23;99932.22;;;28.16;35.45
47738;BME280;33502;47.182;27.506;2022-07-11T10:34:05;99929.97;;;28.70;32.78
47738;BME280;33502;47.182;27.506;2022-07-11T10:36:40;99917.28;;;28.26;34.18
47738;BME280;33502;47.182;27.506;2022-07-11T10:39:21;99914.38;;;28.86;35.13
47738;BME280;33502;47.182;27.506;2022-07-11T10:41:54;99922.34;;;29.31;33.39
47738;BME280;33502;47.182;27.506;2022-07-11T10:44:20;99920.22;;;29.04;32.36
47738;BME280;33502;47.182;27.506;2022-07-11T10:46:46;99913.41;;;28.72;32.37
47738;BME280;33502;47.182;27.506;2022-07-11T10:57:12;99933.69;;;28.18;33.97
47738;BME280;33502;47.182;27.506;2022-07-11T11:00:01;99927.88;;;28.36;33.28
47738;BME280;33502;47.182;27.506;2022-07-11T11:02:29;99940.16;;;27.58;34.61
47738;BME280;33502;47.182;27.506;2022-07-11T11:04:59;99939.91;;;27.97;34.26
47738;BME280;33502;47.182;27.506;2022-07-11T11:09:59;99916.06;;;28.87;32.98
47738;BME280;33502;47.182;27.506;2022-07-11T11:15:43;99938.31;;;27.73;34.01
47738;BME280;33502;47.182;27.506;2022-07-11T11:23:24;99941.97;;;27.27;35.18
47738;BME280;33502;47.182;27.506;2022-07-11T11:25:50;99939.59;;;27.01;35.10
47738;BME280;33502;47.182;27.506;2022-07-11T11:28:23;99937.91;;;27.76;35.49
47738;BME280;33502;47.182;27.506;2022-07-11T11:30:55;99937.19;;;27.82;34.52
47738;BME280;33502;47.182;27.506;2022-07-11T11:33:25;99941.50;;;28.21;34.47
47738;BME280;33502;47.182;27.506;2022-07-11T11:36:09;99944.53;;;27.44;35.13
47738;BME280;33502;47.182;27.506;2022-07-11T11:38:37;99940.69;;;26.69;35.48
47738;BME280;33502;47.182;27.506;2022-07-11T11:41:04;99950.47;;;26.07;36.06
47738;BME280;33502;47.182;27.506;2022-07-11T11:43:34;99944.84;;;25.53;36.64
47738;BME280;33502;47.182;27.506;2022-07-11T11:46:01;99938.69;;;26.23;35.36
47738;BME280;33502;47.182;27.506;2022-07-11T11:48:33;99930.69;;;27.68;33.43
47738;BME280;33502;47.182;27.506;2022-07-11T11:51:03;99917.69;;;28.60;32.21
47738;BME280;33502;47.182;27.506;2022-07-11T11:53:39;99911.06;;;28.33;31.99
47738;BME280;33502;47.182;27.506;2022-07-11T11:56:26;99920.72;;;27.61;33.33
47738;BME280;33502;47.182;27.506;2022-07-11T11:58:59;99924.13;;;28.95;32.63
47738;BME280;33502;47.182;27.506;2022-07-11T12:01:28;99934.50;;;28.48;33.04
47738;BME280;33502;47.182;27.506;2022-07-11T12:06:23;99919.06;;;26.52;34.44
47738;BME280;33502;47.182;27.506;2022-07-11T12:08:50;99922.22;;;25.93;35.54
47738;BME280;33502;47.182;27.506;2022-07-11T12:11:16;99927.56;;;26.10;35.57
47738;BME280;33502;47.182;27.506;2022-07-11T12:13:42;99921.78;;;27.60;33.38
47738;BME280;33502;47.182;27.506;2022-07-11T12:16:15;99920.63;;;28.80;32.43
47738;BME280;33502;47.182;27.506;2022-07-11T12:19:01;99912.88;;;29.05;31.34
47738;BME280;33502;47.182;27.506;2022-07-11T12:21:28;99915.28;;;28.35;33.09
47738;BME280;33502;47.182;27.506;2022-07-11T12:24:03;99935.34;;;28.49;33.35
47738;BME280;33502;47.182;27.506;2022-07-11T12:26:33;99929.31;;;29.33;32.60
47738;BME280;33502;47.182;27.506;2022-07-11T12:31:48;99932.31;;;27.92;33.56
47738;BME280;33502;47.182;27.506;2022-07-11T12:34:18;99940.28;;;26.80;34.70
47738;BME280;33502;47.182;27.506;2022-07-11T12:36:45;99930.16;;;25.87;35.82
47738;BME280;33502;47.182;27.506;2022-07-11T12:39:24;99930.78;;;25.49;36.50
47738;BME280;33502;47.182;27.506;2022-07-11T12:41:52;99940.53;;;25.91;35.51
47738;BME280;33502;47.182;27.506;2022-07-11T12:44:28;99935.81;;;26.25;35.02
47738;BME280;33502;47.182;27.506;2022-07-11T12:47:13;99930.66;;;25.98;34.97
47738;BME280;33502;47.182;27.506;2022-07-11T12:49:40;99932.75;;;25.64;36.18
47738;BME280;33502;47.182;27.506;2022-07-11T12:52:13;99923.13;;;25.61;36.31
47738;BME280;33502;47.182;27.506;2022-07-11T12:54:40;99934.16;;;25.51;37.24
47738;BME280;33502;47.182;27.506;2022-07-11T12:57:07;99935.19;;;25.26;36.92
47738;BME280;33502;47.182;27.506;2022-07-11T12:59:34;99927.03;;;25.17;36.70
47738;BME280;33502;47.182;27.506;2022-07-11T13:04:32;99941.44;;;26.54;34.23
47738;BME280;33502;47.182;27.506;2022-07-11T13:07:27;99937.66;;;25.76;34.60
47738;BME280;33502;47.182;27.506;2022-07-11T13:10:22;99937.78;;;26.00;34.83
47738;BME280;33502;47.182;27.506;2022-07-11T13:12:51;99930.88;;;26.60;34.47
47738;BME280;33502;47.182;27.506;2022-07-11T13:15:18;99940.47;;;27.25;32.26
47738;BME280;33502;47.182;27.506;2022-07-11T13:17:48;99924.13;;;27.48;31.85
47738;BME280;33502;47.182;27.506;2022-07-11T13:20:18;99926.69;;;27.94;31.33
47738;BME280;33502;47.182;27.506;2022-07-11T13:22:46;99936.28;;;28.41;31.11
47738;BME280;33502;47.182;27.506;2022-07-11T13:25:13;99934.78;;;28.39;31.21
47738;BME280;33502;47.182;27.506;2022-07-11T13:27:44;99931.50;;;27.92;32.17
47738;BME280;33502;47.182;27.506;2022-07-11T13:30:11;99931.38;;;27.09;33.71
47738;BME280;33502;47.182;27.506;2022-07-11T13:32:40;99935.91;;;26.40;34.52
47738;BME280;33502;47.182;27.506;2022-07-11T13:35:07;99932.03;;;25.86;35.26
47738;BME280;33502;47.182;27.506;2022-07-11T13:37:34;99935.63;;;25.95;35.20
47738;BME280;33502;47.182;27.506;2022-07-11T13:40:04;99939.63;;;26.38;34.41